Currie, Nevada
Current Conditions -  °F | °C
As of 3:53 PM on Saturday 25 Oct 2014 (Local Time) from KELY Reporting Station
Clear Clear  
Wind Chill: 69°   Ceiling: Unl
Heat Index: 69°   Visibility: 10mi
Dew Point: 25°   Wind: 26mph
Humidity: 19%   Direction: 180°S
Pressure: 30.02"   Gusts: 37mph
Location:  39.5572°N, 115.033°W
Report Text: KELY 252253Z AUTO 18023G32KT 10SM CLR 21/M04 A3002 RMK AO2 PK WND 17032/2251 SLP087 T02061039
Loading
Personal Weather Stations






























Interactive Weather Map
Tropical Storm Tracking
New forecast layout! Learn more

10-Day Weather Forecast

Advertisements
Track Severe Weather on mobile